Holmesville, Ohio
Current Conditions -  °F | °C
As of 7:56 PM on Friday 28 Nov 2014 (Local Time) from KBJJ Reporting Station
Broken Clouds Broken Clouds  
Wind Chill: 18°   Ceiling: 9000
Heat Index: 26°   Visibility: 10mi
Dew Point: 21°   Wind: 7mph
Humidity: 81%   Direction: 170°S
Pressure: 30.17"   Gusts: NA
Location:  40.63°N, 81.92°W
Report Text: KBJJ 290056Z AUTO 17006KT 10SM BKN090 M03/M06 A3017 RMK AO2 SNE05 SLP233 P0000 T10331061 TSNO
Loading
Personal Weather Stations






























Interactive Weather Map New forecast layout! Learn more

10-Day Weather Forecast

Advertisements
Track Severe Weather on mobile